Time;durP1;ratioP1;P1;durP2;ratioP2;P2;SDS_P1;SDS_P2;PMS_P1;PMS_P2;Temp;Humidity;BMP_temperature;BMP_pressure;BME280_temperature;BME280_humidity;BME280_pressure;Samples;Min_cycle;Max_cycle;Signal;HPM_P1;HPM_P2
2022/07/29 00:01:38;;;;;;;7.10;6.50;;;;;;;18.95;100.00;97953.56;5052599;28;20219;-76
2022/07/29 00:04:05;;;;;;;7.67;6.87;;;;;;;18.87;100.00;97959.72;5053108;28;20695;-76
2022/07/29 00:06:31;;;;;;;6.80;6.20;;;;;;;18.79;100.00;97961.50;5052706;28;20700;-76
2022/07/29 00:08:58;;;;;;;7.00;6.30;;;;;;;18.67;100.00;97960.97;5051023;28;20218;-76
2022/07/29 00:11:24;;;;;;;6.93;6.30;;;;;;;18.59;100.00;97955.56;5052870;28;20219;-76
2022/07/29 00:13:51;;;;;;;7.03;6.43;;;;;;;18.53;100.00;97953.50;5052906;28;20218;-76
2022/07/29 00:16:19;;;;;;;7.00;6.40;;;;;;;18.46;100.00;97944.44;5052436;28;20239;-76
2022/07/29 00:18:45;;;;;;;7.20;6.50;;;;;;;18.46;100.00;97944.44;5052926;28;20222;-77
2022/07/29 00:21:12;;;;;;;7.50;6.80;;;;;;;18.38;100.00;97933.72;5053068;28;20236;-76
2022/07/29 00:23:38;;;;;;;7.33;6.33;;;;;;;18.31;100.00;97924.66;5053244;28;20311;-76
2022/07/29 00:26:05;;;;;;;6.93;6.27;;;;;;;18.26;100.00;97934.94;5052858;28;20246;-76
2022/07/29 00:28:31;;;;;;;7.23;6.50;;;;;;;18.19;100.00;97928.56;5052747;28;20230;-76
2022/07/29 00:30:58;;;;;;;7.03;6.33;;;;;;;18.16;100.00;97936.88;5052789;28;20212;-76
2022/07/29 00:33:26;;;;;;;7.43;6.73;;;;;;;18.13;100.00;97928.34;5053206;28;20217;-76
2022/07/29 00:35:51;;;;;;;7.60;6.80;;;;;;;18.09;100.00;97916.25;5050700;28;20271;-76
2022/07/29 00:38:20;;;;;;;7.73;6.93;;;;;;;18.06;100.00;97922.78;5052381;28;20247;-76
2022/07/29 00:40:47;;;;;;;7.10;6.40;;;;;;;18.03;100.00;97928.44;5052408;28;20216;-76
2022/07/29 00:43:14;;;;;;;7.03;6.40;;;;;;;18.00;100.00;97927.91;5052576;28;20657;-76
2022/07/29 00:45:41;;;;;;;6.57;6.00;;;;;;;18.00;100.00;97927.91;5052542;28;20223;-76
2022/07/29 00:48:08;;;;;;;7.37;6.67;;;;;;;18.05;100.00;97922.94;5052593;28;20295;-76
2022/07/29 00:50:37;;;;;;;7.67;6.87;;;;;;;18.03;100.00;97925.75;5052202;28;20586;-75
2022/07/29 00:53:04;;;;;;;7.03;6.27;;;;;;;17.99;100.00;97921.72;5052632;28;20235;-76
2022/07/29 00:55:31;;;;;;;7.00;6.30;;;;;;;17.98;100.00;97920.03;5052342;28;20240;-78
2022/07/29 00:57:58;;;;;;;7.07;6.47;;;;;;;17.91;100.00;97913.66;5052340;28;20307;-78
2022/07/29 01:00:27;;;;;;;7.50;6.80;;;;;;;17.85;100.00;97919.63;5049399;28;20663;-77
2022/07/29 01:02:53;;;;;;;7.57;6.80;;;;;;;17.78;100.00;97920.41;5053264;28;20223;-77
2022/07/29 01:05:22;;;;;;;7.30;6.63;;;;;;;17.76;100.00;97914.38;5055971;28;20216;-77
2022/07/29 01:07:53;;;;;;;7.47;6.63;;;;;;;17.74;100.00;97916.38;5055677;28;20208;-76
2022/07/29 01:10:21;;;;;;;7.17;6.43;;;;;;;17.73;100.00;97912.03;5055943;28;20222;-77
2022/07/29 01:12:51;;;;;;;7.30;6.53;;;;;;;17.71;100.00;97906.81;5056258;28;20228;-77
2022/07/29 01:15:18;;;;;;;7.50;6.80;;;;;;;17.71;100.00;97904.16;5055507;28;20214;-79
2022/07/29 01:17:50;;;;;;;8.10;7.10;;;;;;;17.70;100.00;97906.97;5055873;28;20226;-77
2022/07/29 01:20:23;;;;;;;7.50;6.80;;;;;;;17.63;100.00;97904.06;5055380;28;20216;-77
2022/07/29 01:23:17;;;;;;;7.30;6.63;;;;;;;17.57;100.00;97915.41;5055866;28;20219;-77
2022/07/29 01:26:01;;;;;;;7.07;6.37;;;;;;;17.57;100.00;97904.72;5055630;28;20238;-77
2022/07/29 01:28:53;;;;;;;7.07;6.37;;;;;;;17.55;100.00;97904.00;5054027;28;20661;-77
2022/07/29 01:31:32;;;;;;;7.70;6.90;;;;;;;17.57;100.00;97904.72;5055718;28;20216;-77
2022/07/29 01:34:03;;;;;;;8.07;7.03;;;;;;;17.59;100.00;97902.72;5055504;28;20211;-77
2022/07/29 01:36:33;;;;;;;7.43;6.73;;;;;;;17.63;100.00;97903.25;5055854;28;20236;-77
2022/07/29 01:39:06;;;;;;;7.60;6.90;;;;;;;17.59;100.00;97908.06;5055574;28;20212;-77
2022/07/29 01:41:37;;;;;;;7.87;7.07;;;;;;;17.55;100.00;97909.34;5055301;28;20216;-77
2022/07/29 01:44:12;;;;;;;7.67;6.87;;;;;;;17.53;100.00;97908.69;5055124;28;20260;-79
2022/07/29 01:46:42;;;;;;;7.43;6.73;;;;;;;17.49;100.00;97904.63;5040283;28;20616;-77
2022/07/29 01:49:14;;;;;;;7.77;7.03;;;;;;;17.42;100.00;97902.72;5055147;28;20298;-77
2022/07/29 01:51:47;;;;;;;7.53;6.83;;;;;;;17.36;100.00;97901.47;5055073;28;20574;-76
2022/07/29 01:54:19;;;;;;;7.17;6.57;;;;;;;17.32;100.00;97905.44;5053734;28;20665;-77
2022/07/29 01:56:49;;;;;;;7.80;7.00;;;;;;;17.31;100.00;97898.44;5054554;28;20246;-77
2022/07/29 01:59:20;;;;;;;7.30;6.60;;;;;;;17.30;100.00;97906.59;5055000;28;20212;-77
2022/07/29 02:01:48;;;;;;;7.53;6.83;;;;;;;17.32;100.00;97905.44;5054832;28;20294;-77
2022/07/29 02:04:17;;;;;;;7.23;6.53;;;;;;;17.26;100.00;97895.38;5039114;28;20212;-77
2022/07/29 02:06:45;;;;;;;8.00;7.20;;;;;;;17.23;100.00;97901.03;5054479;28;20674;-77
2022/07/29 02:09:14;;;;;;;7.77;7.07;;;;;;;17.16;100.00;97894.63;5054783;28;20647;-77
2022/07/29 02:11:48;;;;;;;8.47;7.20;;;;;;;17.16;100.00;97894.63;5054834;28;20216;-77
2022/07/29 02:14:18;;;;;;;7.70;7.00;;;;;;;17.18;100.00;97891.81;5054244;28;20212;-77
2022/07/29 02:16:46;;;;;;;7.87;7.07;;;;;;;17.15;100.00;97882.28;5053896;28;20705;-77
2022/07/29 02:19:14;;;;;;;7.80;7.10;;;;;;;17.12;100.00;97882.56;5054139;28;20560;-77
2022/07/29 02:21:42;;;;;;;8.07;7.03;;;;;;;17.11;100.00;97885.38;5054449;28;20323;-77
2022/07/29 02:24:12;;;;;;;8.30;7.53;;;;;;;17.09;100.00;97882.03;5054565;28;20220;-77
2022/07/29 02:26:41;;;;;;;8.00;7.30;;;;;;;17.08;100.00;97883.03;5054333;28;20266;-77
2022/07/29 02:29:09;;;;;;;11.93;10.50;;;;;;;17.10;100.00;97881.88;5054331;28;20215;-75
2022/07/29 02:31:40;;;;;;;10.07;8.20;;;;;;;17.02;100.00;97884.44;5054728;28;20212;-75
2022/07/29 02:34:10;;;;;;;8.60;7.73;;;;;;;17.01;100.00;97884.63;5054347;28;20216;-75
2022/07/29 02:36:37;;;;;;;8.03;7.23;;;;;;;16.94;100.00;97883.56;5054319;28;20235;-77
2022/07/29 02:39:05;;;;;;;7.60;6.90;;;;;;;16.92;100.00;97886.38;5054101;28;20230;-75
2022/07/29 02:41:39;;;;;;;8.23;7.43;;;;;;;16.86;100.00;97886.97;5054250;28;20658;-76
2022/07/29 02:44:10;;;;;;;7.63;6.93;;;;;;;16.82;100.00;97890.91;5054147;28;20252;-76
2022/07/29 02:46:44;;;;;;;8.27;7.40;;;;;;;16.78;100.00;97889.56;5052515;28;20622;-76
2022/07/29 02:49:16;;;;;;;8.50;7.60;;;;;;;16.71;100.00;97888.47;5054344;28;20222;-76
2022/07/29 02:51:46;;;;;;;7.90;7.20;;;;;;;16.78;100.00;97894.91;5054065;28;20212;-76
2022/07/29 02:54:23;;;;;;;8.30;7.53;;;;;;;16.76;100.00;97896.84;5052272;28;20216;-75
2022/07/29 02:56:55;;;;;;;8.70;7.90;;;;;;;16.74;100.00;97888.16;5053578;28;20239;-75
2022/07/29 02:59:27;;;;;;;7.80;7.10;;;;;;;16.78;100.00;97894.06;5038671;28;20650;-76
2022/07/29 03:01:56;;;;;;;8.73;7.93;;;;;;;16.75;100.00;97889.84;5053872;28;20208;-77
2022/07/29 03:04:28;;;;;;;8.77;7.87;;;;;;;16.75;100.00;97892.50;5053472;28;20208;-77
2022/07/29 03:06:55;;;;;;;8.30;7.60;;;;;;;16.76;100.00;97891.53;5053793;28;20220;-76
2022/07/29 03:09:24;;;;;;;8.33;7.53;;;;;;;16.75;100.00;97895.19;5053619;28;20303;-77
2022/07/29 03:11:51;;;;;;;7.93;7.13;;;;;;;16.79;100.00;97896.56;5053269;28;20208;-77
2022/07/29 03:14:19;;;;;;;7.97;7.17;;;;;;;16.82;100.00;97900.78;5052672;28;20218;-76
2022/07/29 03:16:46;;;;;;;7.83;7.03;;;;;;;16.84;100.00;97904.13;5053739;28;20305;-76
2022/07/29 03:19:15;;;;;;;7.83;7.03;;;;;;;16.84;100.00;97898.78;5053240;28;20251;-76
2022/07/29 03:21:41;;;;;;;8.27;7.57;;;;;;;16.83;100.00;97889.94;5053085;28;20239;-76
2022/07/29 03:24:08;;;;;;;8.93;8.03;;;;;;;16.86;100.00;97892.31;5052987;28;20208;-76
2022/07/29 03:26:35;;;;;;;8.93;8.03;;;;;;;16.92;100.00;97897.06;5052962;28;20652;-76
2022/07/29 03:29:01;;;;;;;8.10;7.30;;;;;;;17.02;100.00;97895.13;5053064;28;20279;-76
2022/07/29 03:31:28;;;;;;;7.53;6.83;;;;;;;17.08;100.00;97891.84;5053304;28;20212;-76
2022/07/29 03:33:55;;;;;;;7.77;7.07;;;;;;;17.14;100.00;97888.56;5053355;28;20239;-76
2022/07/29 03:36:24;;;;;;;8.10;7.30;;;;;;;17.20;100.00;97887.97;5053621;28;20246;-77
2022/07/29 03:38:51;;;;;;;8.40;7.53;;;;;;;17.27;100.00;97897.06;5051462;28;20254;-76
2022/07/29 03:41:19;;;;;;;11.03;7.73;;;;;;;17.39;100.00;97906.56;5053302;28;20220;-76
2022/07/29 03:43:48;;;;;;;7.80;7.10;;;;;;;17.43;100.00;97896.41;5053160;28;20220;-76
2022/07/29 03:46:17;;;;;;;10.00;7.70;;;;;;;17.41;100.00;97899.22;5053566;28;20216;-77
2022/07/29 03:48:49;;;;;;;7.93;7.13;;;;;;;17.46;100.00;97902.28;5053222;28;20216;-76
2022/07/29 03:51:16;;;;;;;7.27;6.57;;;;;;;17.48;100.00;97900.28;5052845;28;20302;-77
2022/07/29 03:53:43;;;;;;;7.60;7.00;;;;;;;17.48;100.00;97910.97;5052802;28;20212;-76
2022/07/29 03:56:11;;;;;;;7.83;7.13;;;;;;;17.55;100.00;97908.53;5053370;28;20230;-76
2022/07/29 03:58:39;;;;;;;7.77;7.07;;;;;;;17.59;100.00;97902.72;5052815;28;20621;-77
2022/07/29 04:01:06;;;;;;;9.13;7.83;;;;;;;17.54;100.00;97913.03;5052863;28;20216;-76
2022/07/29 04:03:33;;;;;;;7.40;6.73;;;;;;;17.53;100.00;97906.00;5053480;28;20307;-76
2022/07/29 04:06:01;;;;;;;8.13;7.40;;;;;;;17.51;100.00;97902.66;5066782;28;20303;-76
2022/07/29 04:08:27;;;;;;;7.47;6.80;;;;;;;17.52;100.00;97893.66;5053336;28;20222;-77
2022/07/29 04:10:56;;;;;;;7.30;6.50;;;;;;;17.52;100.00;97904.34;5052978;28;20227;-77
2022/07/29 04:13:22;;;;;;;7.80;7.10;;;;;;;17.49;100.00;97907.31;5052709;28;20588;-77
2022/07/29 04:15:49;;;;;;;7.50;6.83;;;;;;;17.49;100.00;97906.47;5053107;28;20215;-76
2022/07/29 04:18:15;;;;;;;7.80;7.13;;;;;;;17.47;100.00;97908.44;5052601;28;20239;-77
2022/07/29 04:20:42;;;;;;;7.27;6.57;;;;;;;17.47;100.00;97909.31;5053401;28;20704;-77
2022/07/29 04:23:09;;;;;;;7.73;7.00;;;;;;;17.45;100.00;97911.28;5053116;28;20216;-77
2022/07/29 04:25:38;;;;;;;7.73;7.03;;;;;;;17.39;100.00;97911.91;5053046;28;20219;-78
2022/07/29 04:28:06;;;;;;;7.43;6.73;;;;;;;17.40;100.00;97913.59;5053180;28;20405;-78
2022/07/29 04:30:34;;;;;;;7.83;7.13;;;;;;;17.42;100.00;97911.59;5052120;28;20228;-77
2022/07/29 04:33:01;;;;;;;7.53;6.83;;;;;;;17.43;100.00;97913.25;5052620;28;20306;-77
2022/07/29 04:35:28;;;;;;;7.73;7.03;;;;;;;17.43;100.00;97917.78;5052878;28;20224;-76
2022/07/29 04:37:54;;;;;;;8.10;7.40;;;;;;;17.45;100.00;97915.78;5053348;28;20236;-76
2022/07/29 04:40:21;;;;;;;7.83;7.13;;;;;;;17.46;100.00;97917.47;5056976;28;20208;-78
2022/07/29 04:42:48;;;;;;;8.50;7.70;;;;;;;17.48;100.00;97913.66;5056613;28;20220;-78
2022/07/29 04:45:16;;;;;;;7.57;6.93;;;;;;;17.71;100.00;97917.53;5057227;28;20564;-78
2022/07/29 04:47:43;;;;;;;8.20;7.03;;;;;;;17.94;100.00;97913.34;5056760;28;20578;-77
2022/07/29 04:50:10;;;;;;;7.77;7.03;;;;;;;17.97;100.00;97909.50;5056777;28;20216;-77
2022/07/29 04:52:36;;;;;;;8.00;6.93;;;;;;;17.93;100.00;97917.00;5056325;28;20212;-77
2022/07/29 04:55:04;;;;;;;10.57;7.73;;;;;;;17.96;100.00;97915.84;5056333;28;20302;-77
2022/07/29 04:57:31;;;;;;;8.83;7.60;;;;;;;17.98;100.00;97914.69;5054746;28;20236;-76
2022/07/29 04:59:57;;;;;;;7.77;7.03;;;;;;;18.02;100.00;97913.41;5056236;28;20212;-77
2022/07/29 05:02:25;;;;;;;8.47;7.67;;;;;;;18.05;100.00;97910.38;5056330;28;20208;-77
2022/07/29 05:04:52;;;;;;;8.33;7.53;;;;;;;18.07;100.00;97911.09;5056581;28;20218;-78
2022/07/29 05:07:18;;;;;;;8.03;7.33;;;;;;;18.09;100.00;97910.91;5055798;28;20639;-77
2022/07/29 05:09:45;;;;;;;8.93;8.10;;;;;;;18.11;100.00;97920.47;5056025;28;20208;-77
2022/07/29 05:12:11;;;;;;;9.13;8.27;;;;;;;18.11;100.00;97915.13;5055786;28;20673;-77
2022/07/29 05:14:38;;;;;;;8.80;7.90;;;;;;;18.14;100.00;97920.16;5055908;28;20311;-78
2022/07/29 05:17:05;;;;;;;9.03;8.13;;;;;;;18.19;100.00;97911.66;5056022;28;20247;-77
2022/07/29 05:19:33;;;;;;;8.47;7.67;;;;;;;18.23;100.00;97916.53;5055996;28;20215;-77
2022/07/29 05:21:59;;;;;;;9.27;8.47;;;;;;;18.36;100.00;97919.63;5055747;28;20262;-77
2022/07/29 05:24:26;;;;;;;9.23;8.43;;;;;;;18.55;100.00;97919.41;5054579;28;20216;-77
2022/07/29 05:26:52;;;;;;;9.73;8.73;;;;;;;18.80;100.00;97921.19;5055885;28;20216;-77
2022/07/29 05:29:19;;;;;;;8.57;7.87;;;;;;;19.16;100.00;97914.59;5055419;28;20215;-77
2022/07/29 05:31:45;;;;;;;8.53;7.73;;;;;;;19.83;100.00;97922.41;5055939;28;20217;-76
2022/07/29 05:34:12;;;;;;;7.93;7.13;;;;;;;20.54;100.00;97920.59;5055997;28;20214;-77
2022/07/29 05:36:40;;;;;;;8.20;6.93;;;;;;;21.04;100.00;97918.38;5039610;28;20584;-77
2022/07/29 05:39:07;;;;;;;6.67;6.17;;;;;;;21.26;100.00;97914.91;5055146;28;20215;-76
2022/07/29 05:41:33;;;;;;;7.60;6.90;;;;;;;21.38;100.00;97920.69;5055629;28;20311;-76
2022/07/29 05:44:00;;;;;;;7.77;7.07;;;;;;;21.64;99.82;97924.72;5055507;28;20692;-77
2022/07/29 05:46:26;;;;;;;7.93;7.03;;;;;;;21.99;96.70;97926.81;5054259;28;20635;-77
2022/07/29 05:48:53;;;;;;;7.37;6.77;;;;;;;22.51;92.62;97938.47;5053268;28;20902;-76
2022/07/29 05:51:19;;;;;;;6.77;6.17;;;;;;;22.98;89.40;97936.19;5054263;28;20212;-75
2022/07/29 05:53:47;;;;;;;6.73;5.97;;;;;;;23.26;87.94;97936.34;5053274;28;20208;-75
2022/07/29 05:56:14;;;;;;;6.43;5.80;;;;;;;23.35;86.09;97937.94;5054244;28;20219;-75
2022/07/29 05:58:40;;;;;;;6.33;5.57;;;;;;;23.27;86.30;97944.25;5053633;28;20247;-77
2022/07/29 06:01:07;;;;;;;6.53;5.70;;;;;;;23.55;84.86;97945.22;5053672;28;20214;-75
2022/07/29 06:03:34;;;;;;;6.50;5.90;;;;;;;23.64;83.52;97945.94;5053782;28;20212;-75
2022/07/29 06:06:00;;;;;;;5.67;5.13;;;;;;;24.07;81.82;97950.31;5054003;28;20604;-75
2022/07/29 06:08:27;;;;;;;6.47;5.37;;;;;;;24.98;77.90;97950.97;5053609;28;20227;-75
2022/07/29 06:10:55;;;;;;;4.93;4.53;;;;;;;25.54;74.30;97947.91;5053429;28;20224;-77
2022/07/29 06:13:21;;;;;;;5.33;4.83;;;;;;;26.06;71.73;97948.03;5053234;28;20677;-76
2022/07/29 06:15:48;;;;;;;4.80;4.40;;;;;;;26.30;70.50;97955.53;5051978;28;20214;-76
2022/07/29 06:18:15;;;;;;;5.10;4.60;;;;;;;26.30;70.21;97952.00;5053078;28;20286;-76
2022/07/29 06:20:41;;;;;;;5.03;4.53;;;;;;;26.37;69.04;97956.38;5052961;28;20269;-75
2022/07/29 06:23:08;;;;;;;5.63;4.80;;;;;;;26.10;69.60;97959.28;5053203;28;20226;-76
2022/07/29 06:25:36;;;;;;;5.77;5.17;;;;;;;26.07;69.54;97965.94;5053670;28;20218;-75
2022/07/29 06:28:04;;;;;;;4.93;4.43;;;;;;;26.31;68.60;97967.19;5053761;28;20212;-76
2022/07/29 06:30:31;;;;;;;5.10;3.70;;;;;;;26.60;66.98;97959.53;5052997;28;20211;-76
2022/07/29 06:32:57;;;;;;;4.33;3.93;;;;;;;26.66;65.81;97971.38;5053081;28;20216;-77
2022/07/29 06:35:24;;;;;;;4.60;4.20;;;;;;;26.46;67.00;97967.84;5053854;28;20215;-76
2022/07/29 06:37:51;;;;;;;3.90;3.60;;;;;;;26.44;66.74;97965.34;5052870;28;20250;-75
2022/07/29 06:43:02;;;;;;;4.07;3.67;;;;;;;27.08;62.88;97967.13;5051434;28;20219;-77
2022/07/29 06:45:30;;;;;;;3.83;3.43;;;;;;;26.66;63.77;97969.53;5052720;28;20230;-77
2022/07/29 06:47:56;;;;;;;3.90;3.40;;;;;;;26.36;65.57;97973.69;5052518;28;20219;-77
2022/07/29 06:50:23;;;;;;;4.43;3.63;;;;;;;26.05;66.24;97978.88;5052629;28;20215;-77
2022/07/29 06:52:49;;;;;;;3.50;3.20;;;;;;;25.69;67.17;97974.81;5052475;28;20219;-77
2022/07/29 06:55:16;;;;;;;3.73;3.30;;;;;;;25.44;68.98;97973.69;5052024;28;20266;-78
2022/07/29 06:57:42;;;;;;;3.33;3.03;;;;;;;25.16;70.14;97978.31;5052316;28;20428;-77
2022/07/29 07:00:10;;;;;;;3.67;3.23;;;;;;;24.95;71.18;97979.25;5052184;28;20315;-78
2022/07/29 07:02:38;;;;;;;3.67;3.37;;;;;;;24.78;72.33;97982.47;5051932;28;20685;-75
2022/07/29 07:05:05;;;;;;;3.70;3.27;;;;;;;24.71;73.15;97984.28;5052635;28;20247;-75
2022/07/29 07:07:32;;;;;;;3.70;3.40;;;;;;;24.67;72.64;97991.13;5052476;28;20224;-78
2022/07/29 07:09:58;;;;;;;3.53;3.23;;;;;;;24.55;71.20;97985.41;5050626;28;20208;-78
2022/07/29 07:12:25;;;;;;;3.43;3.13;;;;;;;24.60;70.75;97985.69;5052109;28;20223;-77
2022/07/29 07:14:51;;;;;;;3.83;3.53;;;;;;;24.69;71.37;97989.91;5052405;28;20252;-77
2022/07/29 07:17:18;;;;;;;3.40;3.10;;;;;;;24.83;71.87;97994.38;5052129;28;20204;-76
2022/07/29 07:19:46;;;;;;;4.07;3.70;;;;;;;24.88;71.55;97986.47;5052169;28;20212;-77
2022/07/29 07:22:12;;;;;;;4.20;3.57;;;;;;;24.76;70.84;97993.47;5052290;28;20240;-78
2022/07/29 07:24:39;;;;;;;4.23;3.40;;;;;;;24.71;72.05;97990.56;5052694;28;20226;-77
2022/07/29 07:27:05;;;;;;;3.50;3.13;;;;;;;24.68;72.43;97990.94;5051855;28;20219;-76
2022/07/29 07:29:32;;;;;;;3.77;3.23;;;;;;;24.65;72.25;97994.03;5051986;28;20581;-75
2022/07/29 07:31:59;;;;;;;3.97;3.50;;;;;;;24.68;71.09;98007.16;5051722;28;20224;-77
2022/07/29 07:34:25;;;;;;;4.13;3.47;;;;;;;24.53;70.63;97992.88;5052333;28;20218;-77
2022/07/29 07:36:53;;;;;;;3.80;3.40;;;;;;;24.48;71.16;97997.19;5050436;28;20219;-76
2022/07/29 07:39:20;;;;;;;3.93;3.10;;;;;;;24.47;71.08;97999.06;5051870;28;20232;-77
2022/07/29 07:41:46;;;;;;;5.43;3.60;;;;;;;24.48;70.27;97999.88;5051943;28;20216;-77
2022/07/29 07:44:13;;;;;;;3.50;3.20;;;;;;;24.58;71.10;98003.13;5052313;28;20592;-76
2022/07/29 07:46:39;;;;;;;3.67;3.37;;;;;;;24.71;70.12;97997.81;5051836;28;20230;-76
2022/07/29 07:49:06;;;;;;;4.37;3.70;;;;;;;24.78;67.32;98007.66;5051601;28;20218;-76
2022/07/29 07:51:32;;;;;;;3.73;3.43;;;;;;;24.76;68.77;98004.28;5051629;28;20226;-76
2022/07/29 07:54:00;;;;;;;4.40;3.23;;;;;;;24.98;67.87;97994.22;5052012;28;20218;-77
2022/07/29 07:56:27;;;;;;;5.37;4.23;;;;;;;25.26;64.95;97997.75;5051930;28;20216;-78
2022/07/29 07:58:54;;;;;;;4.17;3.87;;;;;;;25.38;64.78;98001.56;5051718;28;20247;-77
2022/07/29 08:01:22;;;;;;;4.00;3.60;;;;;;;25.49;63.79;97996.38;5051695;28;20209;-77
2022/07/29 08:03:49;;;;;;;4.33;3.93;;;;;;;25.55;62.73;97997.47;5049988;28;20224;-77
2022/07/29 08:06:16;;;;;;;4.97;3.93;;;;;;;25.64;62.17;98001.66;5051466;28;20220;-77
2022/07/29 08:08:43;;;;;;;6.13;3.70;;;;;;;25.81;61.85;98006.50;5051636;28;20218;-77
2022/07/29 08:11:10;;;;;;;4.23;3.80;;;;;;;25.94;60.80;98006.56;5051277;28;20333;-76
2022/07/29 08:13:38;;;;;;;3.80;3.50;;;;;;;26.14;59.59;98004.72;5053659;28;20212;-76
2022/07/29 08:16:12;;;;;;;3.80;3.50;;;;;;;26.38;58.61;98001.41;5055438;28;20270;-76
2022/07/29 08:18:40;;;;;;;4.40;4.00;;;;;;;26.32;56.70;98002.22;5055628;28;20244;-78
2022/07/29 08:21:07;;;;;;;4.73;3.83;;;;;;;26.20;58.71;98003.88;5055487;28;20249;-76
2022/07/29 08:23:38;;;;;;;5.03;4.07;;;;;;;26.07;60.39;98009.28;5055993;28;20208;-76
2022/07/29 08:26:05;;;;;;;4.50;4.07;;;;;;;25.95;60.18;98007.38;5055252;28;20219;-75
2022/07/29 08:28:33;;;;;;;4.50;3.87;;;;;;;25.75;61.40;98004.63;5055465;28;20216;-76
2022/07/29 08:30:59;;;;;;;3.80;3.50;;;;;;;25.79;60.31;97997.72;5053763;28;20258;-76
2022/07/29 08:33:26;;;;;;;4.50;4.10;;;;;;;25.83;60.53;98004.41;5055365;28;20212;-75
2022/07/29 08:35:52;;;;;;;4.73;4.33;;;;;;;25.86;61.21;98001.31;5055363;28;20234;-76
2022/07/29 08:38:19;;;;;;;4.17;3.77;;;;;;;25.91;60.42;98004.25;5055258;28;20605;-75
2022/07/29 08:40:46;;;;;;;4.93;3.60;;;;;;;25.85;61.27;98001.50;5055212;28;20579;-76
2022/07/29 08:43:13;;;;;;;4.37;3.97;;;;;;;25.87;61.87;98007.56;5055620;28;20216;-77
2022/07/29 08:45:45;;;;;;;4.20;3.80;;;;;;;25.95;59.78;98001.97;5055340;28;20587;-76
2022/07/29 08:48:12;;;;;;;5.07;4.00;;;;;;;25.94;60.06;97998.44;5055259;28;20212;-68
2022/07/29 08:50:40;;;;;;;4.27;3.83;;;;;;;25.97;59.41;98003.44;5054966;28;20238;-71
2022/07/29 08:53:11;;;;;;;5.00;4.50;;;;;;;26.04;57.31;98003.47;5055201;28;20216;-72
2022/07/29 08:55:40;;;;;;;4.53;3.85;;;;;;;26.10;56.23;97991.78;5054253;28;20212;-72
2022/07/29 08:58:08;;;;;;;6.13;4.00;;;;;;;26.05;54.73;97997.84;5053957;28;20244;-72
2022/07/29 09:00:36;;;;;;;5.07;4.30;;;;;;;26.16;52.66;97996.38;5054683;28;20218;-71
2022/07/29 09:03:05;;;;;;;4.60;4.20;;;;;;;26.15;53.39;97995.53;5054842;28;20589;-71
2022/07/29 09:05:33;;;;;;;4.40;4.00;;;;;;;26.24;51.02;97993.47;5053363;28;20558;-70
2022/07/29 09:08:00;;;;;;;4.13;3.77;;;;;;;26.18;52.09;97999.72;5051906;28;20224;-71
2022/07/29 09:10:28;;;;;;;5.23;4.73;;;;;;;26.30;50.82;97998.91;5053365;28;20695;-71
2022/07/29 09:12:55;;;;;;;4.27;3.87;;;;;;;26.19;52.74;98001.38;5053092;28;20212;-72
2022/07/29 09:15:22;;;;;;;4.87;3.87;;;;;;;26.33;51.52;98006.59;5046924;28;20213;-70
2022/07/29 09:17:50;;;;;;;5.60;4.40;;;;;;;26.44;50.09;98000.56;5045791;28;20307;-70
2022/07/29 09:20:22;;;;;;;5.65;4.30;;;;;;;26.49;49.83;98006.19;5053280;28;20666;-69
2022/07/29 09:22:52;;;;;;;4.30;3.80;;;;;;;26.65;49.42;97999.56;5038482;28;20235;-69
2022/07/29 09:25:33;;;;;;;4.63;4.22;;;;;;;26.66;49.22;98009.34;5072202;28;20219;-74
2022/07/29 09:28:07;;;;;;;5.65;4.30;;;;;;;26.71;49.01;98001.44;5073383;28;20214;-70
2022/07/29 09:30:33;;;;;;;6.63;4.53;;;;;;;26.55;49.36;98002.69;5073153;28;20697;-72
2022/07/29 09:33:02;;;;;;;4.53;4.13;;;;;;;26.57;50.27;97994.34;5073404;28;20583;-72
2022/07/29 09:35:31;;;;;;;4.87;3.90;;;;;;;26.64;50.60;97998.72;5073746;28;20215;-71
2022/07/29 09:37:58;;;;;;;4.90;4.30;;;;;;;26.78;50.28;97997.66;5070056;28;20585;-73
2022/07/29 09:40:26;;;;;;;5.32;3.63;;;;;;;26.86;50.08;97994.72;5072141;28;20693;-73
2022/07/29 09:42:55;;;;;;;5.40;4.20;;;;;;;27.06;50.96;97987.38;5073596;28;20207;-72
2022/07/29 09:45:30;;;;;;;6.05;4.18;;;;;;;27.23;49.03;97991.31;5073252;28;20647;-73
2022/07/29 09:47:58;;;;;;;5.03;4.53;;;;;;;27.27;48.33;97990.69;5073490;28;20211;-71
2022/07/29 09:50:37;;;;;;;6.28;4.70;;;;;;;27.12;48.72;97986.53;5040293;28;20214;-72
2022/07/29 09:53:04;;;;;;;4.60;4.20;;;;;;;26.98;49.76;97984.06;5073373;28;20221;-72
2022/07/29 09:55:30;;;;;;;6.90;5.00;;;;;;;27.01;49.64;97973.59;5073133;28;20215;-72
2022/07/29 09:58:16;;;;;;;5.30;4.53;;;;;;;27.20;49.60;97978.16;5073022;28;20212;-72
2022/07/29 10:00:45;;;;;;;4.82;4.40;;;;;;;27.34;47.04;97980.63;5073137;28;20763;-73
2022/07/29 10:03:12;;;;;;;6.85;5.40;;;;;;;27.42;48.72;97986.88;5073219;28;20211;-70
2022/07/29 10:05:41;;;;;;;4.90;4.50;;;;;;;27.46;49.28;97976.19;5072949;28;20220;-72
2022/07/29 10:08:09;;;;;;;4.93;4.53;;;;;;;27.61;48.85;97976.75;5073064;28;20234;-74
2022/07/29 10:10:38;;;;;;;7.22;5.10;;;;;;;27.44;48.70;97972.88;5073109;28;20211;-77
2022/07/29 10:13:06;;;;;;;4.65;4.25;;;;;;;27.28;49.58;97980.66;5072784;28;20217;-76
2022/07/29 10:15:36;;;;;;;5.30;4.80;;;;;;;27.13;50.21;97980.03;5072785;28;20208;-76
2022/07/29 10:18:03;;;;;;;5.30;4.70;;;;;;;27.01;51.10;97981.75;5070856;28;20250;-76
2022/07/29 10:20:30;;;;;;;5.88;4.60;;;;;;;26.94;51.03;97978.22;5072504;28;20215;-76
2022/07/29 10:22:58;;;;;;;4.90;4.50;;;;;;;26.92;50.69;97974.06;5072898;28;20239;-76
2022/07/29 10:25:26;;;;;;;5.20;4.63;;;;;;;26.90;50.51;97973.44;5072566;28;20215;-77
2022/07/29 10:27:54;;;;;;;5.13;4.63;;;;;;;26.82;49.96;97976.38;5072754;28;20211;-75
2022/07/29 10:30:23;;;;;;;6.23;5.03;;;;;;;26.73;50.10;97983.91;5072675;28;20243;-76
2022/07/29 10:33:15;;;;;;;5.40;4.90;;;;;;;26.71;50.31;97969.69;5061251;28;20568;-77
2022/07/29 10:36:05;;;;;;;7.10;5.40;;;;;;;26.59;50.31;97974.09;5036500;28;20214;-77
2022/07/29 10:38:53;;;;;;;6.53;4.63;;;;;;;26.51;51.09;97971.56;5063952;28;20262;-76
2022/07/29 10:41:42;;;;;;;4.83;4.43;;;;;;;26.45;51.41;97969.72;5070348;28;20219;-77
2022/07/29 10:44:13;;;;;;;5.00;4.50;;;;;;;26.43;51.58;97965.53;5070763;28;20222;-77
2022/07/29 10:46:41;;;;;;;6.45;5.10;;;;;;;26.31;51.02;97959.91;5072052;28;20215;-76
2022/07/29 10:49:09;;;;;;;5.60;5.10;;;;;;;26.25;51.42;97958.03;5072340;28;20461;-75
2022/07/29 10:51:56;;;;;;;6.23;5.03;;;;;;;26.28;51.12;97965.75;5058891;28;20258;-75
2022/07/29 10:55:00;;;;;;;7.13;4.87;;;;;;;26.14;52.32;97968.69;5051117;28;20232;-75
2022/07/29 10:57:29;;;;;;;5.63;4.90;;;;;;;26.03;52.37;97974.72;5053382;28;20304;-76
2022/07/29 11:00:29;;;;;;;5.73;4.80;;;;;;;26.01;52.98;97972.19;5051997;28;20301;-76
2022/07/29 11:02:57;;;;;;;6.27;5.27;;;;;;;26.10;51.78;97976.34;5069799;28;20218;-75
2022/07/29 11:05:26;;;;;;;7.57;5.30;;;;;;;26.00;52.30;97977.81;5071762;28;20299;-75
2022/07/29 11:08:26;;;;;;;5.77;4.70;;;;;;;25.92;51.77;97972.59;5056220;28;20700;-75
2022/07/29 11:11:38;;;;;;;5.50;5.10;;;;;;;25.21;54.80;97984.81;5069369;28;20223;-75
2022/07/29 11:14:05;;;;;;;6.63;5.10;;;;;;;24.13;60.87;97987.34;5071715;28;20211;-76
2022/07/29 11:16:59;;;;;;;5.50;5.00;;;;;;;23.68;66.20;97977.72;5071590;28;20211;-77
2022/07/29 11:19:25;;;;;;;6.43;5.37;;;;;;;23.34;72.28;97979.41;5071615;28;20241;-75
2022/07/29 11:21:52;;;;;;;7.10;5.40;;;;;;;23.11;78.29;97984.88;5071698;28;20257;-74
2022/07/29 11:24:23;;;;;;;6.47;5.87;;;;;;;23.01;77.95;97978.09;5071535;28;20314;-75
2022/07/29 11:27:14;;;;;;;6.00;5.40;;;;;;;23.19;76.63;97986.69;5071774;28;20215;-75
2022/07/29 11:29:56;;;;;;;6.07;5.47;;;;;;;23.29;77.20;97982.66;5071634;28;20211;-74
2022/07/29 11:32:24;;;;;;;6.43;5.83;;;;;;;23.28;81.48;97986.38;5071171;28;20215;-74
2022/07/29 11:35:11;;;;;;;6.20;5.60;;;;;;;23.42;82.53;97990.91;5071106;28;20215;-74
2022/07/29 11:37:38;;;;;;;9.13;8.20;;;;;;;23.75;81.26;97996.69;5068859;28;20215;-74
2022/07/29 11:40:22;;;;;;;8.03;6.30;;;;;;;24.14;79.28;98000.63;5067869;28;20239;-74
2022/07/29 11:42:51;;;;;;;6.67;6.00;;;;;;;24.37;77.95;97989.59;5071119;28;20654;-74